Time;durP1;ratioP1;P1;durP2;ratioP2;P2;SDS_P1;SDS_P2;PMS_P1;PMS_P2;Temp;Humidity;BMP_temperature;BMP_pressure;BME280_temperature;BME280_humidity;BME280_pressure;Samples;Min_cycle;Max_cycle;Signal;HPM_P1;HPM_P2
2023/06/29 00:00:15;;;;;;;;;46.50;38.25;;;;;25.81;48.25;101074.03;2104110;28;46335;-71
2023/06/29 00:01:15;;;;;;;;;49.25;40.50;;;;;25.81;48.84;101074.03;2107232;27;45698;-72
2023/06/29 00:02:16;;;;;;;;;47.00;39.25;;;;;25.81;48.91;101075.91;2105015;27;46577;-72
2023/06/29 00:03:17;;;;;;;;;45.25;37.25;;;;;25.81;48.83;101073.19;2105365;27;45622;-73
2023/06/29 00:04:21;;;;;;;;;49.80;38.60;;;;;25.81;48.13;101074.03;2104997;27;46448;-71
2023/06/29 00:05:21;;;;;;;;;42.00;35.60;;;;;25.82;48.71;101077.63;2096177;28;45505;-72
2023/06/29 00:06:22;;;;;;;;;52.00;41.25;;;;;25.81;48.74;101073.19;2096282;28;46182;-69
2023/06/29 00:07:26;;;;;;;;;50.00;38.50;;;;;25.79;48.90;101073.31;2104878;27;46386;-72
2023/06/29 00:08:28;;;;;;;;;47.80;40.20;;;;;25.79;48.92;101075.13;2105189;27;46307;-72
2023/06/29 00:09:28;;;;;;;;;48.40;39.00;;;;;25.77;48.58;101077.09;2105075;27;46373;-71
2023/06/29 00:10:29;;;;;;;;;48.25;40.00;;;;;25.76;48.25;101065.38;2097418;28;45043;-70
2023/06/29 00:11:30;;;;;;;;;45.50;36.00;;;;;25.77;48.66;101077.09;2098019;28;45530;-70
2023/06/29 00:12:30;;;;;;;;;52.20;42.40;;;;;25.76;48.54;101072.66;2107382;27;46415;-70
2023/06/29 00:13:31;;;;;;;;;53.50;42.00;;;;;25.76;48.64;101075.38;2106019;27;45532;-71
2023/06/29 00:14:31;;;;;;;;;49.75;41.50;;;;;25.75;49.23;101076.38;2106050;27;45258;-71
2023/06/29 00:15:31;;;;;;;;;53.00;43.75;;;;;25.75;49.23;101070.94;2105876;27;44975;-70
2023/06/29 00:16:32;;;;;;;;;55.75;45.25;;;;;25.74;48.48;101075.50;2104638;27;46410;-71
2023/06/29 00:17:33;;;;;;;;;55.50;43.50;;;;;25.73;49.16;101079.22;2097886;27;45672;-71
2023/06/29 00:18:35;;;;;;;;;52.80;43.00;;;;;25.72;48.81;101069.34;2104457;27;46509;-73
2023/06/29 00:19:36;;;;;;;;;43.60;35.80;;;;;25.71;49.21;101067.59;2104585;27;46019;-70
2023/06/29 00:20:37;;;;;;;;;49.40;39.00;;;;;25.69;49.16;101068.72;2104972;27;45876;-70
2023/06/29 00:21:37;;;;;;;;;55.50;44.50;;;;;25.71;49.26;101066.75;2106926;27;45060;-68
2023/06/29 00:22:40;;;;;;;;;49.75;39.50;;;;;25.69;49.32;101066.00;2104503;27;46491;-72
2023/06/29 00:23:40;;;;;;;;;53.40;43.00;;;;;25.69;48.85;101066.00;2105033;27;46692;-71
2023/06/29 00:24:44;;;;;;;;;52.25;43.25;;;;;25.68;48.79;101065.09;2105336;27;45916;-70
2023/06/29 00:25:46;;;;;;;;;49.60;42.20;;;;;25.67;48.89;101060.66;2104594;27;46818;-70
2023/06/29 00:26:47;;;;;;;;;44.40;36.40;;;;;25.66;49.17;101058.91;2104575;27;46746;-71
2023/06/29 00:27:47;;;;;;;;;50.00;41.25;;;;;25.66;48.82;101060.75;2102231;27;45721;-68
2023/06/29 00:28:47;;;;;;;;;51.25;41.25;;;;;25.65;49.09;101061.75;2104754;27;45803;-70
2023/06/29 00:29:48;;;;;;;;;51.75;41.25;;;;;25.64;49.27;101060.00;2100346;27;45675;-70
2023/06/29 00:30:49;;;;;;;;;49.60;40.80;;;;;25.63;48.94;101053.72;2104622;27;45151;-71
2023/06/29 00:31:49;;;;;;;;;50.00;40.50;;;;;25.63;49.09;101055.56;2100607;27;45848;-72
2023/06/29 00:32:50;;;;;;;;;47.50;39.75;;;;;25.62;49.55;101051.13;2096794;28;46650;-72
2023/06/29 00:33:51;;;;;;;;;50.50;41.50;;;;;25.62;49.23;101053.84;2097206;27;45856;-69
2023/06/29 00:34:51;;;;;;;;;49.60;41.20;;;;;25.61;48.88;101052.09;2105468;27;45606;-69
2023/06/29 00:35:51;;;;;;;;;51.50;42.00;;;;;25.61;49.57;101050.25;2099887;28;45612;-71
2023/06/29 00:36:52;;;;;;;;;50.75;42.00;;;;;25.61;49.19;101047.53;2105274;27;44981;-70
2023/06/29 00:37:52;;;;;;;;;51.25;42.75;;;;;25.61;49.08;101052.09;2098426;28;46483;-71
2023/06/29 00:38:52;;;;;;;;;43.75;35.25;;;;;25.61;48.94;101042.09;2093497;28;45650;-71
2023/06/29 00:39:53;;;;;;;;;56.25;46.00;;;;;25.61;49.15;101044.81;2094301;28;46305;-72
2023/06/29 00:40:53;;;;;;;;;59.00;48.00;;;;;25.61;49.15;101044.81;2104297;27;46358;-70
2023/06/29 00:41:54;;;;;;;;;59.75;47.50;;;;;25.62;48.85;101042.97;2109944;27;45553;-71
2023/06/29 00:42:55;;;;;;;;;61.50;48.50;;;;;25.62;49.37;101049.25;2103366;27;46117;-71
2023/06/29 00:43:55;;;;;;;;;60.75;50.25;;;;;25.62;49.52;101048.41;2110625;27;46656;-70
2023/06/29 00:44:56;;;;;;;;;60.75;48.25;;;;;25.63;49.39;101047.41;2106343;27;46300;-71
2023/06/29 00:45:56;;;;;;;;;64.00;51.50;;;;;25.64;49.22;101039.13;2098548;28;45032;-72
2023/06/29 00:46:57;;;;;;;;;67.75;52.25;;;;;25.64;48.96;101035.56;2102109;28;45911;-72
2023/06/29 00:47:57;;;;;;;;;64.00;51.25;;;;;25.63;49.16;101037.41;2096284;28;46768;-71
2023/06/29 00:48:57;;;;;;;;;55.75;45.75;;;;;25.63;49.13;101031.97;2100123;28;45972;-70
2023/06/29 00:49:59;;;;;;;;;56.25;44.00;;;;;25.62;49.60;101037.53;2105729;27;46238;-70
2023/06/29 00:51:00;;;;;;;;;54.20;44.60;;;;;25.61;49.72;101033.94;2104034;27;46390;-70
2023/06/29 00:52:01;;;;;;;;;54.75;43.75;;;;;25.61;49.25;101030.38;2110433;27;46564;-73
2023/06/29 00:53:01;;;;;;;;;52.75;42.00;;;;;25.62;49.17;101026.66;2107608;27;45590;-72
2023/06/29 00:54:02;;;;;;;;;47.00;40.25;;;;;25.62;49.64;101037.53;2106258;27;45795;-70
2023/06/29 00:55:03;;;;;;;;;46.00;35.50;;;;;25.62;49.38;101032.97;2111218;27;46534;-72
2023/06/29 00:56:04;;;;;;;;;46.00;38.00;;;;;25.62;49.03;101023.94;2105815;27;46837;-70
2023/06/29 00:57:08;;;;;;;;;49.20;41.00;;;;;25.62;48.85;101035.69;2109055;27;46378;-70
2023/06/29 00:58:09;;;;;;;;;43.00;35.40;;;;;25.62;49.28;101032.97;2101567;28;45621;-70
2023/06/29 00:59:09;;;;;;;;;46.50;38.75;;;;;25.62;49.17;101024.81;2088172;28;46530;-69
2023/06/29 01:00:10;;;;;;;;;44.50;37.75;;;;;25.62;49.01;101038.41;2101624;28;45946;-71
2023/06/29 01:01:10;;;;;;;;;43.80;37.40;;;;;25.63;49.09;101020.22;2102731;27;45662;-71
2023/06/29 01:02:11;;;;;;;;;46.75;39.75;;;;;25.63;49.52;101025.66;2103992;27;45643;-71
2023/06/29 01:03:11;;;;;;;;;48.00;39.75;;;;;25.62;49.15;101023.94;2110044;27;46349;-70
2023/06/29 01:04:17;;;;;;;;;46.00;38.50;;;;;25.63;49.08;101022.94;2103704;27;45095;-70
2023/06/29 01:05:17;;;;;;;;;46.40;38.20;;;;;25.61;49.05;101020.34;2107138;27;46582;-69
2023/06/29 01:06:22;;;;;;;;;46.00;37.75;;;;;25.63;49.39;101017.50;2108680;27;45870;-70
2023/06/29 01:07:39;;;;;;;;;45.80;37.20;;;;;25.61;49.12;101020.34;2103322;27;47221;-70
2023/06/29 01:08:46;;;;;;;;;46.80;38.60;;;;;25.61;48.74;101014.06;2105492;27;45705;-73
2023/06/29 01:09:47;;;;;;;;;46.40;39.00;;;;;25.60;49.45;101009.63;2110570;27;46740;-69
2023/06/29 01:10:48;;;;;;;;;48.25;41.00;;;;;25.59;49.32;101013.31;2101404;27;46299;-69
2023/06/29 01:11:51;;;;;;;;;45.00;37.20;;;;;25.59;48.99;101011.47;2099133;28;45701;-71
2023/06/29 01:12:53;;;;;;;;;44.00;37.40;;;;;25.59;49.00;101011.47;2101723;27;46421;-71
2023/06/29 01:13:54;;;;;;;;;43.00;36.20;;;;;25.59;49.32;101013.31;2104325;27;45910;-72
2023/06/29 01:14:55;;;;;;;;;43.60;34.60;;;;;25.59;48.83;101013.31;2100704;28;45678;-70
2023/06/29 01:15:55;;;;;;;;;42.75;36.25;;;;;25.57;49.48;101010.72;2100691;28;45903;-71
2023/06/29 01:16:57;;;;;;;;;42.50;33.25;;;;;25.56;48.92;101008.13;2109548;27;46501;-70
2023/06/29 01:17:59;;;;;;;;;40.40;32.80;;;;;25.56;49.35;101013.56;2111479;27;45762;-71
2023/06/29 01:19:11;;;;;;;;;34.20;31.60;;;;;25.53;49.30;101012.81;2105133;27;47233;-67
2023/06/29 01:20:14;;;;;;;;;42.60;36.40;;;;;25.52;48.81;101011.06;2103713;27;45219;-70
2023/06/29 01:21:16;;;;;;;;;42.00;36.00;;;;;25.51;48.85;101012.06;2110573;27;46536;-70
2023/06/29 01:22:35;;;;;;;;;44.20;36.20;;;;;25.51;49.43;101012.06;2105450;27;46710;-70
2023/06/29 01:23:38;;;;;;;;;43.00;35.20;;;;;25.49;49.04;101011.31;2109920;27;46121;-69
2023/06/29 01:24:40;;;;;;;;;46.00;35.60;;;;;25.49;49.32;101003.19;2110382;27;45100;-70
2023/06/29 01:25:42;;;;;;;;;38.80;33.60;;;;;25.49;48.90;101011.31;2104069;27;46448;-71
2023/06/29 01:26:43;;;;;;;;;45.40;37.80;;;;;25.49;48.95;101010.47;2102485;27;47107;-71
2023/06/29 01:27:43;;;;;;;;;40.25;34.75;;;;;25.48;49.39;101001.44;2103949;27;45651;-70
2023/06/29 01:28:43;;;;;;;;;43.50;36.00;;;;;25.47;49.58;101007.88;2098148;27;45515;-72
2023/06/29 01:29:44;;;;;;;;;45.50;36.25;;;;;25.47;48.85;101007.00;2096222;27;45995;-72
2023/06/29 01:30:50;;;;;;;;;43.25;34.00;;;;;25.46;49.44;101014.28;2104008;28;46349;-71
2023/06/29 01:32:00;;;;;;;;;41.60;36.20;;;;;25.47;48.94;101013.31;2096202;28;46416;-69
2023/06/29 01:33:00;;;;;;;;;40.60;35.00;;;;;25.47;49.50;101001.56;2097161;27;45550;-71
2023/06/29 01:34:01;;;;;;;;;41.75;34.75;;;;;25.47;49.05;101007.00;2105971;28;45688;-71
2023/06/29 01:35:02;;;;;;;;;34.50;31.00;;;;;25.47;48.89;101007.88;2105588;27;45604;-70
2023/06/29 01:36:18;;;;;;;;;41.40;34.00;;;;;25.47;49.56;100999.72;2105870;27;47723;-70
2023/06/29 01:37:23;;;;;;;;;41.60;33.60;;;;;25.48;49.27;101015.03;2097331;27;46703;-69
2023/06/29 01:38:30;;;;;;;;;38.60;33.80;;;;;25.48;49.19;101001.44;2097363;28;45807;-71
2023/06/29 01:39:39;;;;;;;;;39.00;32.80;;;;;25.49;49.38;101000.47;2097286;28;47205;-72
2023/06/29 01:40:43;;;;;;;;;42.40;36.40;;;;;25.49;49.30;100999.59;2106368;27;45154;-73
2023/06/29 01:41:45;;;;;;;;;39.80;33.80;;;;;25.50;49.33;101009.47;2103909;27;45815;-72
2023/06/29 01:42:48;;;;;;;;;41.80;35.00;;;;;25.49;49.62;101007.75;2104213;27;45744;-70
2023/06/29 01:43:51;;;;;;;;;40.40;35.60;;;;;25.50;49.17;101009.47;2105827;27;45899;-70
2023/06/29 01:44:54;;;;;;;;;40.00;34.40;;;;;25.50;49.72;101012.19;2106755;27;46500;-71
2023/06/29 01:45:55;;;;;;;;;41.80;35.00;;;;;25.49;49.11;100999.59;2096907;28;45591;-72
2023/06/29 01:46:56;;;;;;;;;44.60;37.00;;;;;25.49;49.41;101003.19;2096365;28;48519;-71
2023/06/29 01:47:57;;;;;;;;;42.00;35.00;;;;;25.48;49.06;101012.31;2107080;27;46008;-71
2023/06/29 01:48:58;;;;;;;;;42.80;35.80;;;;;25.47;49.22;101005.16;2105855;27;45739;-73
2023/06/29 01:50:00;;;;;;;;;40.50;34.00;;;;;25.46;49.78;100998.00;2106847;27;45986;-69
2023/06/29 01:51:00;;;;;;;;;46.60;37.80;;;;;25.45;49.13;101006.28;2106368;27;46073;-72
2023/06/29 01:52:02;;;;;;;;;44.25;35.25;;;;;25.44;49.89;101005.41;2096553;28;46420;-71
2023/06/29 01:53:02;;;;;;;;;42.00;36.20;;;;;25.45;49.74;101006.28;2097651;28;46773;-71
2023/06/29 01:54:03;;;;;;;;;43.00;36.75;;;;;25.43;49.82;101003.69;2107101;27;45996;-70
2023/06/29 01:55:03;;;;;;;;;46.50;38.25;;;;;25.43;49.67;101000.09;2112504;27;46411;-71
2023/06/29 01:56:04;;;;;;;;;45.50;39.00;;;;;25.42;49.79;100991.09;2106338;27;45980;-72
2023/06/29 01:57:06;;;;;;;;;51.75;40.50;;;;;25.42;49.71;101001.94;2104887;27;45816;-71
2023/06/29 01:58:06;;;;;;;;;52.40;40.80;;;;;25.41;49.49;100999.31;2106811;27;47614;-71
2023/06/29 01:59:06;;;;;;;;;46.75;38.50;;;;;25.41;49.24;101002.94;2106915;27;46140;-71
2023/06/29 02:00:08;;;;;;;;;48.00;39.25;;;;;25.42;49.95;100995.66;2105178;27;46514;-71
2023/06/29 02:01:09;;;;;;;;;52.00;42.40;;;;;25.41;49.92;101000.22;2107220;27;45561;-70
2023/06/29 02:02:09;;;;;;;;;47.50;39.25;;;;;25.42;49.59;100995.66;2106697;27;46826;-70
2023/06/29 02:03:09;;;;;;;;;51.50;41.25;;;;;25.43;49.70;100991.94;2096911;28;45531;-69
2023/06/29 02:04:10;;;;;;;;;48.00;39.75;;;;;25.42;49.78;101001.94;2097529;28;45687;-69
2023/06/29 02:05:10;;;;;;;;;49.50;41.25;;;;;25.41;49.81;101000.22;2105522;27;46100;-69
2023/06/29 02:06:11;;;;;;;;;47.50;39.75;;;;;25.41;49.32;100988.47;2106441;27;45804;-72
2023/06/29 02:07:11;;;;;;;;;45.00;38.75;;;;;25.39;49.19;100994.03;2107031;27;46186;-71
2023/06/29 02:08:12;;;;;;;;;47.25;38.50;;;;;25.40;49.62;100994.88;2105750;27;45642;-69
2023/06/29 02:09:12;;;;;;;;;49.25;39.00;;;;;25.39;49.34;100990.44;2106893;27;46018;-70
2023/06/29 02:10:12;;;;;;;;;47.25;39.25;;;;;25.40;49.58;100984.00;2104747;27;46639;-69
2023/06/29 02:11:13;;;;;;;;;54.25;44.00;;;;;25.41;49.15;100989.34;2105963;28;46152;-69
2023/06/29 02:12:13;;;;;;;;;43.25;36.25;;;;;25.39;49.71;100980.44;2105305;27;46208;-69
2023/06/29 02:13:13;;;;;;;;;51.25;42.25;;;;;25.39;49.48;100994.03;2106144;27;46079;-70
2023/06/29 02:14:16;;;;;;;;;50.25;41.50;;;;;25.40;49.54;100990.31;2106538;27;46295;-70
2023/06/29 02:15:17;;;;;;;;;52.00;42.20;;;;;25.40;49.24;100981.28;2106196;27;45230;-70
2023/06/29 02:16:18;;;;;;;;;51.75;42.75;;;;;25.39;49.79;100979.56;2105584;27;46319;-70
2023/06/29 02:17:18;;;;;;;;;58.60;47.00;;;;;25.40;49.59;100984.00;2100968;27;46029;-71
2023/06/29 02:18:18;;;;;;;;;60.00;47.00;;;;;25.39;49.42;100991.31;2102450;27;46255;-70
2023/06/29 02:19:19;;;;;;;;;56.00;45.50;;;;;25.39;49.87;100983.16;2105560;28;46262;-71
2023/06/29 02:20:19;;;;;;;;;54.00;44.25;;;;;25.40;49.85;100981.28;2096910;28;46228;-72
2023/06/29 02:21:20;;;;;;;;;63.00;51.50;;;;;25.38;49.51;100981.44;2096424;28;45921;-72
2023/06/29 02:22:20;;;;;;;;;62.75;49.50;;;;;25.40;49.99;100981.28;2106084;27;45776;-70
2023/06/29 02:23:20;;;;;;;;;65.25;49.75;;;;;25.41;49.61;100981.19;2106627;27;46219;-72
2023/06/29 02:24:21;;;;;;;;;68.00;58.00;;;;;25.41;50.08;100983.91;2105423;27;46692;-69
2023/06/29 02:25:21;;;;;;;;;58.75;46.50;;;;;25.41;49.40;100978.47;2096487;28;46332;-69
2023/06/29 02:26:24;;;;;;;;;67.50;56.00;;;;;25.41;49.88;100974.88;2071319;28;46162;-70
2023/06/29 02:27:24;;;;;;;;;65.00;52.60;;;;;25.41;49.56;100972.16;2079770;27;45771;-69
2023/06/29 02:28:25;;;;;;;;;62.75;51.00;;;;;25.41;50.28;100977.59;2100848;27;45066;-70
2023/06/29 02:29:25;;;;;;;;;62.25;51.00;;;;;25.41;50.15;100981.19;2096835;28;47204;-70
2023/06/29 02:30:25;;;;;;;;;64.25;53.00;;;;;25.41;50.17;100978.47;2102990;27;46534;-74
2023/06/29 02:31:26;;;;;;;;;63.50;52.25;;;;;25.41;50.42;100977.59;2105484;27;44962;-72
2023/06/29 02:32:26;;;;;;;;;64.00;50.50;;;;;25.41;50.30;100975.78;2105375;27;47458;-69
2023/06/29 02:33:26;;;;;;;;;61.75;50.25;;;;;25.39;50.35;100977.72;2105537;27;45868;-69
2023/06/29 02:34:27;;;;;;;;;62.50;50.00;;;;;25.41;50.50;100977.59;2105586;27;45042;-68
2023/06/29 02:35:27;;;;;;;;;60.25;48.25;;;;;25.40;50.32;100973.16;2107020;27;45768;-70
2023/06/29 02:36:28;;;;;;;;;62.25;49.75;;;;;25.40;50.29;100967.72;2099877;28;45418;-70
2023/06/29 02:37:28;;;;;;;;;60.75;49.50;;;;;25.38;50.02;100969.69;2106723;27;45704;-68
2023/06/29 02:38:28;;;;;;;;;65.25;49.75;;;;;25.38;49.73;100970.56;2105997;28;45648;-67
2023/06/29 02:39:29;;;;;;;;;60.50;48.50;;;;;25.38;50.53;100969.69;2105873;28;45591;-69
2023/06/29 02:40:29;;;;;;;;;58.75;47.00;;;;;25.36;50.01;100968.97;2103141;28;46439;-68
2023/06/29 02:41:29;;;;;;;;;64.25;50.00;;;;;25.37;50.64;100965.25;2097044;28;47325;-68
2023/06/29 02:42:29;;;;;;;;;61.00;49.25;;;;;25.37;49.81;100968.81;2099132;28;46242;-67
2023/06/29 02:43:30;;;;;;;;;59.00;46.50;;;;;25.36;50.23;100960.81;2100519;28;45700;-68
2023/06/29 02:44:30;;;;;;;;;56.00;45.50;;;;;25.35;50.52;100959.94;2099237;28;46496;-68
2023/06/29 02:45:30;;;;;;;;;59.50;46.50;;;;;25.35;50.20;100964.50;2103141;28;45538;-67
2023/06/29 02:46:31;;;;;;;;;59.25;47.50;;;;;25.33;50.64;100961.06;2105330;28;45700;-67
2023/06/29 02:47:32;;;;;;;;;57.20;45.20;;;;;25.33;50.63;100961.91;2105544;28;46348;-67
2023/06/29 02:48:32;;;;;;;;;60.25;49.25;;;;;25.32;50.47;100965.63;2105393;28;46546;-66
2023/06/29 02:49:32;;;;;;;;;58.75;47.00;;;;;25.32;50.78;100956.59;2105080;28;46656;-66
2023/06/29 02:50:33;;;;;;;;;49.50;41.25;;;;;25.32;50.67;100968.34;2105062;28;46553;-66
2023/06/29 02:51:33;;;;;;;;;57.00;44.50;;;;;25.33;50.32;100961.06;2105335;28;46247;-67
2023/06/29 02:52:33;;;;;;;;;56.50;45.50;;;;;25.33;50.15;100961.91;2105161;28;46664;-67
2023/06/29 02:53:34;;;;;;;;;57.00;46.25;;;;;25.33;50.18;100959.19;2096519;28;45597;-67
2023/06/29 02:54:34;;;;;;;;;55.25;45.25;;;;;25.35;50.79;100969.94;2099296;28;45230;-66
2023/06/29 02:55:34;;;;;;;;;58.50;47.25;;;;;25.34;50.81;100963.66;2105277;27;45692;-66
2023/06/29 02:56:35;;;;;;;;;57.75;47.00;;;;;25.34;50.74;100963.66;2105094;27;46460;-67
2023/06/29 02:57:36;;;;;;;;;57.00;46.00;;;;;25.35;50.12;100964.50;2105276;27;46356;-67
2023/06/29 02:58:36;;;;;;;;;58.00;46.00;;;;;25.35;50.49;100959.94;2105244;28;45757;-68
2023/06/29 02:59:36;;;;;;;;;58.00;46.50;;;;;25.34;50.70;100955.50;2105388;28;47685;-67
2023/06/29 03:00:37;;;;;;;;;60.00;46.50;;;;;25.36;50.10;100960.81;2105650;28;45664;-66
2023/06/29 03:01:37;;;;;;;;;54.25;42.75;;;;;25.35;50.97;100962.66;2100713;28;45532;-66
2023/06/29 03:02:38;;;;;;;;;52.75;43.25;;;;;25.35;50.96;100957.22;2096926;28;46240;-66
2023/06/29 03:03:38;;;;;;;;;52.50;43.25;;;;;25.36;50.62;100963.53;2105011;28;45595;-66
2023/06/29 03:04:38;;;;;;;;;52.50;42.50;;;;;25.35;50.45;100959.94;2105411;28;46362;-67
2023/06/29 03:05:38;;;;;;;;;49.75;40.75;;;;;25.36;50.31;100963.53;2104917;28;46259;-67
2023/06/29 03:06:39;;;;;;;;;54.50;44.25;;;;;25.37;50.91;100962.53;2105416;28;45957;-67
2023/06/29 03:07:39;;;;;;;;;51.25;41.75;;;;;25.37;50.40;100962.53;2105317;28;46288;-66
2023/06/29 03:08:39;;;;;;;;;46.50;38.50;;;;;25.35;50.58;100959.94;2105139;28;46984;-67
2023/06/29 03:09:40;;;;;;;;;48.00;40.50;;;;;25.36;50.66;100963.53;2105600;28;45552;-70
2023/06/29 03:10:40;;;;;;;;;49.25;39.75;;;;;25.35;50.42;100964.50;2105221;28;45478;-70
2023/06/29 03:11:40;;;;;;;;;47.50;38.25;;;;;25.34;50.86;100969.09;2105193;28;46618;-72
2023/06/29 03:12:41;;;;;;;;;46.25;39.75;;;;;25.33;50.51;100961.06;2104988;28;46489;-71
2023/06/29 03:13:41;;;;;;;;;50.50;40.25;;;;;25.31;50.73;100963.91;2104866;28;46332;-71
2023/06/29 03:14:41;;;;;;;;;53.00;41.25;;;;;25.32;50.72;100965.63;2105535;28;45463;-72
2023/06/29 03:15:42;;;;;;;;;49.25;39.50;;;;;25.30;50.76;100961.31;2105357;28;45044;-70
2023/06/29 03:16:42;;;;;;;;;50.25;41.50;;;;;25.31;51.01;100954.88;2105082;28;45638;-70
2023/06/29 03:17:42;;;;;;;;;51.50;41.00;;;;;25.31;50.72;100961.19;2103451;28;45565;-71
2023/06/29 03:18:43;;;;;;;;;50.75;41.25;;;;;25.30;50.51;100956.75;2104017;28;45500;-71
2023/06/29 03:19:44;;;;;;;;;53.50;43.00;;;;;25.29;50.93;100952.28;2103490;28;44977;-71
2023/06/29 03:20:45;;;;;;;;;50.40;41.00;;;;;25.31;50.65;100946.72;2104666;27;45778;-70
2023/06/29 03:21:45;;;;;;;;;51.75;42.50;;;;;25.30;50.80;100953.16;2096166;28;46561;-71
2023/06/29 03:22:45;;;;;;;;;50.75;41.75;;;;;25.30;50.83;100953.16;2095929;28;46564;-75
2023/06/29 03:23:46;;;;;;;;;49.00;40.25;;;;;25.29;51.60;100955.00;2096479;28;45802;-76
2023/06/29 03:24:47;;;;;;;;;51.75;42.00;;;;;25.29;50.99;100965.00;2096447;28;46108;-74
2023/06/29 03:25:48;;;;;;;;;49.00;39.75;;;;;25.26;50.65;100955.22;2104658;28;46411;-75
2023/06/29 03:26:48;;;;;;;;;47.40;38.00;;;;;25.24;50.66;100955.34;2095907;28;46604;-77
2023/06/29 03:27:48;;;;;;;;;43.75;36.25;;;;;25.24;50.97;100958.06;2080199;28;46313;-75
2023/06/29 03:28:49;;;;;;;;;48.00;39.50;;;;;25.25;51.39;100953.50;2093661;28;46322;-73
2023/06/29 03:29:52;;;;;;;;;47.75;38.50;;;;;25.25;51.29;100956.22;2091166;28;46946;-71
2023/06/29 03:30:53;;;;;;;;;46.60;38.80;;;;;25.23;51.46;100950.91;2096219;28;46258;-70
2023/06/29 03:31:53;;;;;;;;;47.25;38.50;;;;;25.23;51.16;100959.06;2105296;27;46203;-72
2023/06/29 03:32:53;;;;;;;;;46.50;39.25;;;;;25.23;51.25;100958.19;2104940;28;46986;-71
2023/06/29 03:33:58;;;;;;;;;42.75;36.00;;;;;25.23;51.11;100963.63;2096709;28;46726;-71
2023/06/29 03:34:58;;;;;;;;;43.20;37.20;;;;;25.22;51.52;100961.91;2101016;28;45676;-69
2023/06/29 03:35:58;;;;;;;;;43.00;36.00;;;;;25.23;51.02;100963.63;2102844;28;45121;-68
2023/06/29 03:36:59;;;;;;;;;42.50;35.50;;;;;25.23;51.00;100964.50;2104234;27;46370;-71
2023/06/29 03:37:59;;;;;;;;;49.00;40.00;;;;;25.23;51.52;100960.91;2105227;27;45050;-69
2023/06/29 03:38:59;;;;;;;;;44.00;37.00;;;;;25.22;51.45;100962.75;2099650;27;45903;-70
2023/06/29 03:40:00;;;;;;;;;42.25;34.25;;;;;25.22;51.63;100960.06;2108343;27;45903;-72
2023/06/29 03:41:00;;;;;;;;;41.25;34.50;;;;;25.23;51.43;100958.19;2105062;27;46006;-72
2023/06/29 03:42:00;;;;;;;;;46.00;37.50;;;;;25.23;51.71;100960.91;2101732;27;46327;-69
2023/06/29 03:43:01;;;;;;;;;46.25;38.00;;;;;25.23;51.57;100969.94;2106848;27;46585;-70
2023/06/29 03:44:02;;;;;;;;;44.20;37.80;;;;;25.23;51.81;100969.94;2099257;28;46259;-71
2023/06/29 03:45:02;;;;;;;;;41.75;34.50;;;;;25.23;51.48;100961.78;2103671;27;47796;-72
2023/06/29 03:46:03;;;;;;;;;45.50;37.75;;;;;25.24;51.85;100968.06;2104530;27;47013;-67
2023/06/29 03:47:04;;;;;;;;;44.00;37.50;;;;;25.23;51.54;100960.91;2099908;27;46043;-72
2023/06/29 03:48:04;;;;;;;;;46.00;38.00;;;;;25.24;51.90;100957.22;2105991;27;45508;-69
2023/06/29 03:49:04;;;;;;;;;45.75;38.50;;;;;25.24;52.21;100970.78;2092199;28;46511;-72
2023/06/29 03:50:05;;;;;;;;;45.75;38.00;;;;;25.22;51.80;100954.63;2098551;28;46344;-71
2023/06/29 03:51:06;;;;;;;;;47.00;38.50;;;;;25.22;52.00;100959.19;2104902;28;46404;-71
2023/06/29 03:52:06;;;;;;;;;41.75;34.50;;;;;25.21;52.33;100954.75;2104453;27;45626;-67
2023/06/29 03:53:07;;;;;;;;;46.00;37.00;;;;;25.20;52.13;100961.16;2103958;27;45962;-72
2023/06/29 03:54:07;;;;;;;;;41.25;34.75;;;;;25.19;52.10;100957.59;2103607;27;46617;-69
2023/06/29 03:55:08;;;;;;;;;43.50;36.75;;;;;25.19;52.04;100970.31;2106056;27;45729;-71
2023/06/29 03:56:10;;;;;;;;;43.00;35.25;;;;;25.16;52.05;100965.97;2105858;27;45461;-71
2023/06/29 03:57:10;;;;;;;;;43.80;37.40;;;;;25.16;52.70;100962.41;2091964;28;46746;-70
2023/06/29 03:58:10;;;;;;;;;44.25;37.00;;;;;25.15;52.54;100960.63;2098853;28;46120;-70
2023/06/29 03:59:11;;;;;;;;;43.00;36.00;;;;;25.15;52.20;100964.22;2098263;28;45134;-71
2023/06/29 04:00:12;;;;;;;;;44.50;36.00;;;;;25.15;52.58;100958.78;2090062;28;46184;-71
2023/06/29 04:01:12;;;;;;;;;42.50;35.25;;;;;25.16;52.57;100963.25;2104964;28;45998;-71
2023/06/29 04:02:12;;;;;;;;;45.25;37.25;;;;;25.17;52.78;100961.41;2106848;27;47520;-70
2023/06/29 04:03:13;;;;;;;;;41.00;33.00;;;;;25.18;52.84;100958.56;2099128;27;45888;-71
2023/06/29 04:04:13;;;;;;;;;43.25;36.00;;;;;25.19;53.02;100948.56;2105544;27;47117;-73
2023/06/29 04:05:13;;;;;;;;;44.00;36.25;;;;;25.20;52.40;100956.59;2101534;27;45511;-69
2023/06/29 04:06:14;;;;;;;;;40.25;34.50;;;;;25.21;52.53;100952.03;2101949;27;46620;-72
2023/06/29 04:07:14;;;;;;;;;41.75;35.75;;;;;25.21;52.82;100950.16;2106891;27;46083;-70
2023/06/29 04:08:14;;;;;;;;;41.00;35.00;;;;;25.20;52.84;100953.00;2099724;28;45954;-72
2023/06/29 04:09:15;;;;;;;;;41.75;35.00;;;;;25.19;53.10;100954.88;2104129;27;46587;-69
2023/06/29 04:10:15;;;;;;;;;39.25;34.75;;;;;25.20;53.03;100953.00;2104610;27;45636;-72
2023/06/29 04:11:15;;;;;;;;;35.25;32.00;;;;;25.21;52.32;100957.47;2099929;27;46326;-72
2023/06/29 04:12:16;;;;;;;;;41.50;34.00;;;;;25.21;53.21;100949.31;2106532;27;46460;-71
2023/06/29 04:13:16;;;;;;;;;43.75;36.75;;;;;25.21;52.88;100941.16;2100864;27;46061;-70
2023/06/29 04:14:16;;;;;;;;;41.25;34.75;;;;;25.21;53.21;100947.47;2103231;27;46587;-71
2023/06/29 04:15:17;;;;;;;;;40.50;33.25;;;;;25.20;52.72;100942.16;2098117;28;45455;-66
2023/06/29 04:16:17;;;;;;;;;39.00;32.75;;;;;25.20;52.88;100945.72;2096038;28;46783;-74
2023/06/29 04:17:17;;;;;;;;;41.00;34.75;;;;;25.21;52.74;100941.16;2097296;28;46564;-70
2023/06/29 04:18:17;;;;;;;;;33.75;30.00;;;;;25.20;53.36;100945.72;2104643;27;46512;-70
2023/06/29 04:19:18;;;;;;;;;42.25;35.25;;;;;25.20;53.08;100944.88;2107006;27;45555;-70
2023/06/29 04:20:18;;;;;;;;;40.75;34.00;;;;;25.20;52.87;100939.44;2105366;28;46474;-69
2023/06/29 04:21:18;;;;;;;;;36.75;32.00;;;;;25.19;53.07;100944.00;2105102;28;46303;-69
2023/06/29 04:22:19;;;;;;;;;37.50;32.75;;;;;25.19;53.02;100954.88;2096583;28;45665;-70
2023/06/29 04:23:19;;;;;;;;;37.50;32.25;;;;;25.17;52.94;100943.25;2096100;28;46020;-71
2023/06/29 04:24:20;;;;;;;;;35.00;30.25;;;;;25.16;53.49;100941.53;2101472;28;46408;-69
2023/06/29 04:25:21;;;;;;;;;39.75;32.25;;;;;25.14;53.29;100940.75;2107572;27;45458;-69
2023/06/29 04:26:22;;;;;;;;;34.50;30.75;;;;;25.14;53.61;100940.75;2099977;27;46074;-69
2023/06/29 04:27:22;;;;;;;;;37.40;31.60;;;;;25.10;53.47;100939.28;2103924;28;46765;-75
2023/06/29 04:28:23;;;;;;;;;34.00;30.75;;;;;25.10;53.24;100936.56;2104566;28;46240;-74
2023/06/29 04:29:23;;;;;;;;;39.75;32.75;;;;;25.09;53.29;100936.69;2105477;28;45799;-65
2023/06/29 04:30:24;;;;;;;;;35.00;30.75;;;;;25.09;53.60;100937.56;2104344;28;45770;-73
2023/06/29 04:31:24;;;;;;;;;42.00;35.00;;;;;25.09;53.94;100932.13;2102103;28;45076;-71
2023/06/29 04:32:24;;;;;;;;;33.00;28.75;;;;;25.09;53.36;100936.69;2104033;28;45479;-70
2023/06/29 04:33:25;;;;;;;;;36.25;31.50;;;;;25.09;53.46;100929.41;2106002;28;45653;-77
2023/06/29 04:34:25;;;;;;;;;39.00;31.25;;;;;25.09;53.52;100937.56;2096820;28;45571;-74
2023/06/29 04:35:25;;;;;;;;;34.25;28.75;;;;;25.09;54.28;100934.84;2096362;28;45234;-73
2023/06/29 04:36:26;;;;;;;;;41.75;33.75;;;;;25.09;54.11;100940.28;2096886;28;46496;-73
2023/06/29 04:37:35;;;;;;;;;38.25;32.50;;;;;25.09;54.23;100936.69;2100646;28;46237;-76